Tiempo atmosférico en la estación meteorológica de Puerto de Pajares, Asturias (1480 m.)



Fecha
DESCASC
Temp. máxima en grados centígrados (hora)
DESCASC
Temp. mínima en grados centígrados (hora)
DESCASC
Temp. media en grados centígrados
DESCASC
Racha de viento máxima en m/sg (hora)
DESCASC
Velocidad máxima media en intervalos de 10 minutos(hora)
DESCASC
Precipitaciones diarias en mm
DESCASC
Precipitaciones de 00:00 a 06:00 en mm
DESCASC
Precipitaciones de 06:00 a 12:00 en mm
DESCASC
Precipitaciones de 12:00 a 18:00 en mm
DESCASC
Precipitaciones de 18:00 a 24:00 en mm
DESCASC

Gráficas

Temp. máximas Temp. mínimas Temp. medias Precipitaciones Rachas de viento máximas Velocidades máximas media en intervalos de 10 minutos

Datos horarios

Fecha y hora oficial Temperatura (ºC) Velocidad del viento (km/h) Dirección del viento Racha (km/h) Dirección de racha Precipitación (mm) Presión (hPa) Tendencia (hPa) Humedad (%)
2019-06-25 23:00:00 12.4 0 Calma 9 Noroeste 0.2 -- -- 90
2019-06-25 22:00:00 12.5 2 Oeste 7 Noroeste 0 -- -- 89
2019-06-25 21:00:00 13.4 3 Norte 6 Norte 0 -- -- 86
2019-06-25 20:00:00 15.9 2 Norte 15 Sudoeste 0 -- -- 73
2019-06-25 19:00:00 15.4 6 Sur 15 Sur 0 -- -- 69
2019-06-25 18:00:00 14.5 7 Sur 15 Sur 0 -- -- 70
2019-06-25 17:00:00 13.6 9 Sur 31 Sur 0.2 -- -- 74
2019-06-25 16:00:00 12.7 14 Sudeste 31 Sudeste 2.1 -- -- 83
2019-06-25 15:00:00 13.5 11 Sur 22 Sur 0 -- -- 80
2019-06-25 14:00:00 12.8 9 Sur 29 Sur 0 -- -- 82
2019-06-25 13:00:00 12.5 9 Sudeste 30 Sudeste 0 -- -- 84
2019-06-25 12:00:00 11.6 12 Sudeste 28 Sudeste 0.1 -- -- 89
2019-06-25 11:00:00 11.2 12 Sudeste 26 Sur 0.1 -- -- 90
2019-06-25 10:00:00 10.9 12 Sudeste 26 Sudeste 0.1 -- -- 90
2019-06-25 09:00:00 10.6 10 Sur 22 Sudeste 0.2 -- -- 90
2019-06-25 08:00:00 10.4 8 Sur 23 Sur 0.1 -- -- 90
2019-06-25 07:00:00 10 9 Sur 18 Sur 0 -- -- 89
2019-06-25 06:00:00 10.2 6 Sur 23 Sudeste 0 -- -- 86
2019-06-25 05:00:00 10 8 Sur 26 Sur 0 -- -- 87
2019-06-25 04:00:00 9.9 10 Sur 24 Sur 0 -- -- 87
2019-06-25 03:00:00 9.7 13 Sur 25 Sur 0 -- -- 86
2019-06-25 02:00:00 9.9 9 Sur 18 Sur 0 -- -- 86
2019-06-25 01:00:00 10.1 11 Sur 19 Sur 0 -- -- 86
2019-06-25 00:00:00 10.2 11 Sur 27 Sur 0 -- -- 85
2019-06-24 23:00:00 10.3 14 Sudeste 27 Sudeste 0.1 -- -- 86
2019-06-24 22:00:00 10.7 6 Sur 19 Sudeste 0.4 -- -- 86
2019-06-24 21:00:00 10.6 10 Sudeste 28 Sudeste 0.8 -- -- 87
2019-06-24 20:00:00 10.7 9 Sur 21 Este 0.5 -- -- 86
2019-06-24 19:00:00 10.7 9 Sur 36 Este 0.7 -- -- 86
2019-06-24 18:00:00 10.7 13 Sudeste 35 Sudeste 2.8 -- -- 85
2019-06-24 17:00:00 10.7 18 Sudeste 25 Sudeste 4.6 -- -- 86
2019-06-24 16:00:00 10.3 11 Sur 22 Sur 3.3 -- -- 85
2019-06-24 15:00:00 10.8 12 Sur 27 Sur 0.4 -- -- 82
2019-06-24 14:00:00 10.5 18 Sur 29 Sur 2 -- -- 83
2019-06-24 13:00:00 11.1 13 Sur 21 Sur 2.7 -- -- 80
2019-06-24 12:00:00 12 11 Sudeste 20 Sudeste 0.5 -- -- 75
2019-06-24 11:00:00 12.9 11 Sudeste 23 Sudeste 0.1 -- -- 77
2019-06-24 10:00:00 13.2 8 Sur 27 Este 0 -- -- 74
2019-06-24 09:00:00 12.4 15 Sur 34 Sudeste 1 -- -- 78
2019-06-24 08:00:00 12.2 10 Sudeste 23 Sur 2.4 -- -- 81
2019-06-24 07:00:00 12.5 5 Sur 27 Sur 0.5 -- -- 83
2019-06-24 06:00:00 12.6 9 Sudeste 24 Sudeste 0 -- -- 81
2019-06-24 05:00:00 12 8 Sur 24 Sudeste 0.1 -- -- 82
2019-06-24 04:00:00 11.7 9 Sur 31 Sudeste 0.5 -- -- 78
2019-06-24 03:00:00 11.8 11 Sudeste 27 Sudeste 0.2 -- -- 73
2019-06-24 02:00:00 12.4 9 Sudeste 22 Sudeste 0 -- -- 68
2019-06-24 01:00:00 12.6 13 Sur 30 Este 0.1 -- -- 74
2019-06-24 00:00:00 12.8 15 Sudeste 29 Sur 4.2 -- -- 80
2019-06-23 23:00:00 12.5 12 Sur 19 Sur 4.1 -- -- 85
2019-06-23 22:00:00 12.8 4 Sur 20 Sur 1.2 -- -- 85
2019-06-23 21:00:00 12.4 12 Sur 26 Sudeste 11.1 -- -- 83
2019-06-23 20:00:00 13.2 10 Sudeste 30 Sudeste 3.4 -- -- 76
2019-06-23 19:00:00 13.8 17 Sudeste 61 Sudeste 0.5 -- -- 77
2019-06-23 18:00:00 14.1 14 Sudeste 41 Sudeste 0 -- -- 78
2019-06-23 17:00:00 -- -- -- -- -- -- -- -- --
2019-06-23 16:00:00 13.2 16 Sur 35 Sudoeste 4 -- -- 73
2019-06-23 15:00:00 15.9 10 Sur 39 Sur 0 -- -- 52
2019-06-23 14:00:00 15 21 Sur 47 Sur 0 -- -- 56
2019-06-23 13:00:00 13.7 15 Sur 35 Este 0 -- -- 63
2019-06-23 12:00:00 13.9 14 Sudeste 33 Sudeste 0 -- -- 60
2019-06-23 11:00:00 14 12 Sudeste 30 Sur 0.2 -- -- 60
2019-06-23 10:00:00 12.8 20 Sur 38 Sur 0 -- -- 66
2019-06-23 09:00:00 12.5 15 Sur 40 Sur 0.1 -- -- 66
2019-06-23 08:00:00 11.9 19 Sudeste 38 Sudeste 0.2 -- -- 63
2019-06-23 07:00:00 12.2 8 Sudeste 25 Sudeste 0 -- -- 47
2019-06-23 06:00:00 13 7 Sur 21 Sur 0 -- -- 43
2019-06-23 05:00:00 13.2 5 Sur 16 Sudoeste 0 -- -- 41
2019-06-23 04:00:00 14.9 10 Sur 28 Sur 0 -- -- 36
2019-06-23 03:00:00 14.8 13 Sur 28 Sudeste 0 -- -- 39
2019-06-23 02:00:00 15.1 18 Sur 45 Sur 0 -- -- 43
2019-06-23 01:00:00 16 13 Sur 28 Sur 0 -- -- 44
2019-06-23 00:00:00 14.2 8 Sur 18 Oeste 0 -- -- 49
2019-06-22 23:00:00 14.1 6 Sur 13 Sur 0 -- -- 48
2019-06-22 22:00:00 14.6 7 Sur 14 Sudoeste 0 -- -- 49
2019-06-22 21:00:00 17.8 3 Sudeste 26 Este 0 -- -- 39
2019-06-22 20:00:00 18 12 Este 31 Sudeste 0 -- -- 38
2019-06-22 19:00:00 18.8 17 Sudeste 34 Sur 0 -- -- 37
2019-06-22 18:00:00 17.8 13 Sur 33 Sur 0 -- -- 37
2019-06-22 17:00:00 18.4 14 Sur 43 Sur 0 -- -- 34
2019-06-22 16:00:00 18.7 12 Sur 37 Sur 0 -- -- 36
2019-06-22 15:00:00 17.1 19 Sudeste 38 Sudeste 0 -- -- 41
2019-06-22 14:00:00 14.9 14 Sudeste 38 Sur 0 -- -- 46
2019-06-22 13:00:00 14.1 16 Sudeste 37 Sudeste 0 -- -- 46
2019-06-22 12:00:00 12.9 18 Sur 37 Sudeste 0 -- -- 49
2019-06-22 11:00:00 12.1 21 Sudeste 34 Sur 0 -- -- 48
2019-06-22 10:00:00 12.6 14 Sudeste 42 Sur 0 -- -- 50
2019-06-22 09:00:00 10.2 26 Sur 40 Sur 0 -- -- 56
2019-06-22 08:00:00 8.9 20 Sur 40 Sur 0 -- -- 68
2019-06-22 07:00:00 9 25 Sur 41 Sur 0 -- -- 75
2019-06-22 06:00:00 9.2 20 Sur 36 Sur 0 -- -- 74
2019-06-22 05:00:00 9.3 24 Sur 42 Sur 0 -- -- 75
2019-06-22 04:00:00 9.2 26 Sur 40 Sur 0 -- -- 77
2019-06-22 03:00:00 9.3 26 Sur 43 Sur 0 -- -- 78
2019-06-22 02:00:00 9.3 24 Sur 44 Sur 0 -- -- 80
2019-06-22 01:00:00 9.6 21 Sur 34 Sur 0 -- -- 82
2019-06-22 00:00:00 10 16 Sur 26 Sur 0 -- -- 88
2019-06-21 23:00:00 8.5 8 Sur 13 Sur 0 -- -- 91
2019-06-21 22:00:00 8.2 2 Sur 4 Sudoeste 0 -- -- 91
2019-06-21 21:00:00 8.5 0 Calma 6 Noroeste 0 -- -- 91
2019-06-21 20:00:00 8.7 2 Noroeste 10 Noroeste 0 -- -- 91
2019-06-21 19:00:00 8.6 5 Noroeste 12 Noroeste 0 -- -- 91
2019-06-21 18:00:00 8.7 5 Noroeste 11 Noroeste 0 -- -- 91
2019-06-21 17:00:00 9.2 5 Noroeste 13 Noroeste 0 -- -- 91
2019-06-21 16:00:00 9.7 5 Noroeste 12 Noroeste 0 -- -- 91
2019-06-21 15:00:00 9.9 5 Noroeste 13 Noroeste 0 -- -- 91
2019-06-21 14:00:00 9.5 4 Noroeste 11 Noroeste 0 -- -- 91
2019-06-21 13:00:00 9.1 5 Noroeste 12 Noroeste 0 -- -- 91
2019-06-21 12:00:00 8.4 4 Noroeste 14 Noroeste 0.3 -- -- 91
2019-06-21 11:00:00 7.5 4 Noroeste 12 Noroeste 0.7 -- -- 91
2019-06-21 10:00:00 7.1 7 Noroeste 15 Noroeste 1.1 -- -- 91
2019-06-21 09:00:00 6.8 7 Noroeste 16 Noroeste 0.9 -- -- 91
2019-06-21 08:00:00 6.7 6 Noroeste 14 Noroeste 1.2 -- -- 91
2019-06-21 07:00:00 6.5 6 Noroeste 17 Noroeste 1.2 -- -- 91
2019-06-21 06:00:00 6.5 7 Noroeste 13 Noroeste 1.2 -- -- 91
2019-06-21 05:00:00 6.7 6 Noroeste 9 Noroeste 0.8 -- -- 91
2019-06-21 04:00:00 6.7 3 Noroeste 8 Noroeste 0.5 -- -- 91
2019-06-21 03:00:00 6.7 4 Noroeste 9 Noroeste 0.8 -- -- 91
2019-06-21 02:00:00 6.8 3 Noroeste 8 Noroeste 0.8 -- -- 91
2019-06-21 01:00:00 6.8 3 Noroeste 11 Noroeste 0.7 -- -- 91
2019-06-21 00:00:00 6.9 2 Noroeste 12 Noroeste 0.9 -- -- 91
2019-06-20 23:00:00 6.8 7 Noroeste 19 Noroeste 0.5 -- -- 91
2019-06-20 22:00:00 6.9 10 Noroeste 21 Noroeste 1.8 -- -- 91
2019-06-20 21:00:00 7.3 10 Noroeste 27 Noroeste 0.5 -- -- 91
2019-06-20 20:00:00 7.5 12 Noroeste 23 Noroeste 0.2 -- -- 91
2019-06-20 19:00:00 7.7 12 Noroeste 24 Noroeste 1.6 -- -- 91
2019-06-20 18:00:00 7.9 7 Noroeste 18 Oeste 1.7 -- -- 91
2019-06-20 17:00:00 8 8 Noroeste 19 Noroeste 1.4 -- -- 91
2019-06-20 16:00:00 8.6 8 Noroeste 17 Noroeste 0.9 -- -- 91
2019-06-20 15:00:00 8.9 5 Noroeste 10 Noroeste 0.1 -- -- 91
2019-06-20 14:00:00 8.6 3 Noroeste 11 Noroeste 0 -- -- 91
2019-06-20 13:00:00 8.9 4 Noroeste 9 Noroeste 0 -- -- 91
2019-06-20 12:00:00 8.9 0 Calma 8 Noroeste 0 -- -- 91
2019-06-20 11:00:00 8.4 3 Oeste 7 Noroeste 0 -- -- 91
2019-06-20 10:00:00 8.1 2 Oeste 6 Noroeste 0 -- -- 91
2019-06-20 09:00:00 7.8 0 Calma 7 Noroeste 0.1 -- -- 91
2019-06-20 08:00:00 7.7 0 Calma 4 Noroeste 0 -- -- 91
2019-06-20 07:00:00 7.3 0 Calma -- -- 0 -- -- 91
2019-06-20 06:00:00 7.3 0 Calma -- -- 0 -- -- 91
2019-06-20 05:00:00 7.5 0 Calma 5 Noroeste 0.2 -- -- 91
2019-06-20 04:00:00 7.5 4 Noroeste 6 Noroeste 0.3 -- -- 91
2019-06-20 03:00:00 7.8 3 Noroeste 7 Noroeste 0.3 -- -- 91
2019-06-20 02:00:00 8.1 4 Noroeste 17 Noroeste 0.5 -- -- 91
2019-06-20 01:00:00 8.2 5 Noroeste 10 Noroeste 0.6 -- -- 91
2019-06-20 00:00:00 8.5 6 Noroeste 10 Noroeste 0.5 -- -- 91
2019-06-19 23:00:00 8.8 5 Noroeste 14 Oeste 0.5 -- -- 91
2019-06-19 22:00:00 9.2 5 Noroeste -- -- -- -- -- 91
2019-06-19 21:00:00 9.5 8 Noroeste 16 Noroeste 0.1 -- -- 91
2019-06-19 20:00:00 9.7 8 Noroeste 18 Noroeste 0 -- -- 91
2019-06-19 19:00:00 10.1 8 Noroeste 18 Noroeste 0 -- -- 90
2019-06-19 18:00:00 10.9 6 Noroeste 13 Noroeste 0 -- -- 89
2019-06-19 17:00:00 11.9 5 Noroeste 13 Oeste 0 -- -- 84
2019-06-19 16:00:00 13 6 Norte 18 Noroeste 0 -- -- 78
2019-06-19 15:00:00 13.8 7 Norte 26 Sur 0 -- -- 75
2019-06-19 14:00:00 14.1 10 Sur 23 Sur 0 -- -- 61
2019-06-19 13:00:00 12.5 16 Sur 25 Sur 0 -- -- 65
2019-06-19 12:00:00 12.5 9 Sur 18 Sur 0 -- -- 65
2019-06-19 11:00:00 11.6 8 Sur 18 Sur 0 -- -- 68
2019-06-19 10:00:00 11.1 7 Sur 15 Sur 0 -- -- 69
2019-06-19 09:00:00 10.5 4 Sudoeste 17 Sur 0 -- -- 72
2019-06-19 08:00:00 9.9 5 Sudeste 15 Sudeste 0 -- -- 75
2019-06-19 07:00:00 9.5 8 Sur 32 Sur 0 -- -- 75
2019-06-19 06:00:00 9.8 6 Sur 22 Sur 0 -- -- 76
2019-06-19 05:00:00 10.1 8 Sur -- -- -- -- -- 78
2019-06-19 04:00:00 -- -- -- -- -- -- -- -- --
2019-06-19 03:00:00 10.5 14 Sur 27 Sur 0 -- -- 82
2019-06-19 02:00:00 10.5 9 Sur 21 Sur 0.5 -- -- 84
2019-06-19 01:00:00 10.6 10 Sur 30 Sur 0.1 -- -- 82
2019-06-19 00:00:00 10.9 22 Sudoeste 40 Sur 1.6 -- -- 81
2019-06-18 23:00:00 10.7 14 Sur 36 Sur 1.4 -- -- 85
2019-06-18 22:00:00 11 13 Sudeste 36 Este 0.4 -- -- 82
2019-06-18 21:00:00 11.1 19 Sur 46 Sur 0 -- -- 82
2019-06-18 20:00:00 11.4 18 Sur 49 Sur 1.1 -- -- 79
2019-06-18 19:00:00 11.9 20 Sur 40 Sur 0.6 -- -- 72
2019-06-18 18:00:00 13.1 17 Sur 46 Sur 0.2 -- -- 65
2019-06-18 17:00:00 14.7 19 Sur 53 Sur 0 -- -- 58
2019-06-18 16:00:00 12.5 26 Sur 51 Sur 0.5 -- -- 70
2019-06-18 15:00:00 13.9 14 Sur 51 Sur 0 -- -- 59
2019-06-18 14:00:00 14 20 Sur 55 Sur 0 -- -- 50
2019-06-18 13:00:00 15.6 27 Sur 58 Sur 0 -- -- 45
2019-06-18 12:00:00 15.6 19 Sur 46 Sur 0 -- -- 42
2019-06-18 11:00:00 14.7 22 Sur 55 Sur 0 -- -- 35
2019-06-18 10:00:00 14 21 Sur 46 Sur 0 -- -- 39
2019-06-18 09:00:00 13.2 22 Sudeste 49 Este 0 -- -- 42
2019-06-18 08:00:00 13.2 15 Sur 36 Sur 0 -- -- 39
2019-06-18 07:00:00 12.6 19 Sur 36 Sur 0 -- -- 40
2019-06-18 06:00:00 12.4 17 Sur 32 Sur 0 -- -- 40
2019-06-18 05:00:00 12.7 17 Sur 32 Sur 0 -- -- 39
2019-06-18 04:00:00 12.4 17 Sur 32 Sur 0 -- -- 40
2019-06-18 03:00:00 12.4 15 Sur 38 Sur 0 -- -- 39
2019-06-18 02:00:00 13 17 Sur 36 Sur 0 -- -- 39
2019-06-18 01:00:00 13.5 17 Sur 45 Sur 0 -- -- 36
2019-06-18 00:00:00 13.9 20 Sur 41 Sur 0 -- -- 33
2019-06-17 23:00:00 14.4 12 Sur 30 Sur 0 -- -- 30
2019-06-17 22:00:00 14.9 9 Sudoeste 19 Sur 0 -- -- 28
2019-06-17 21:00:00 15.6 8 Sur 30 Sur 0 -- -- 26
2019-06-17 20:00:00 16.2 10 Sur 24 Sur 0 -- -- 29
2019-06-17 19:00:00 14.2 2 Norte 32 Sudoeste 0 -- -- 63
2019-06-17 18:00:00 17.3 18 Sudoeste 35 Sudoeste 0 -- -- 23
2019-06-17 17:00:00 17.9 13 Sur 43 Sur 0 -- -- 25
2019-06-17 16:00:00 17.5 19 Sur 46 Sur 0 -- -- 29
2019-06-17 15:00:00 18 23 Sur 53 Sur 0 -- -- 31
2019-06-17 14:00:00 17.6 23 Sur 46 Sur 0 -- -- 28
2019-06-17 13:00:00 16.8 21 Sur 51 Sur 0 -- -- 39
2019-06-17 12:00:00 16.4 22 Sur 42 Sur 0 -- -- 44
2019-06-17 11:00:00 15.8 14 Sudeste 39 Sur 0 -- -- 47
2019-06-17 10:00:00 14.4 13 Sudeste 29 Sur 0 -- -- 57
2019-06-17 09:00:00 13.1 12 Sur 31 Sur 0 -- -- 60
2019-06-17 08:00:00 12.3 21 Sur 30 Sur 0 -- -- 61
2019-06-17 07:00:00 11.3 18 Sur 27 Sur 0 -- -- 62
2019-06-17 06:00:00 11.3 18 Sur 26 Sur 0 -- -- 60
2019-06-17 05:00:00 11.4 17 Sur 24 Sur 0 -- -- 57
2019-06-17 04:00:00 10.7 13 Sur 17 Sur 0 -- -- 60
2019-06-17 03:00:00 9.3 7 Sur 13 Sur 0 -- -- 74
2019-06-17 02:00:00 8 5 Sur 11 Sudoeste 0 -- -- 84
2019-06-17 01:00:00 8.5 8 Sudoeste 10 Sur 0 -- -- 85
2019-06-17 00:00:00 10.4 0 Calma 4 Oeste 0 -- -- 85
2019-06-16 23:00:00 10.5 0 Calma 5 Noroeste 0 -- -- 86
2019-06-16 22:00:00 10.7 0 Calma 9 Noroeste 0 -- -- 84
2019-06-16 21:00:00 11.3 3 Noroeste 9 Noroeste 0 -- -- 79
2019-06-16 20:00:00 12.2 4 Noroeste 15 Norte 0 -- -- 76
2019-06-16 19:00:00 13.5 6 Noroeste 15 Noroeste 0 -- -- 72
2019-06-16 18:00:00 14.2 7 Noroeste 19 Noroeste 0 -- -- 69
2019-06-16 17:00:00 15.2 9 Noroeste 19 Noroeste 0 -- -- 65
2019-06-16 16:00:00 15.9 6 Noroeste 17 Noroeste 0 -- -- 60
2019-06-16 15:00:00 17.1 9 Sur 24 Sudeste 0 -- -- 35
2019-06-16 14:00:00 16.3 8 Sudeste 27 Sudeste 0 -- -- 39
2019-06-16 13:00:00 15.2 11 Sudeste 27 Sur 0 -- -- 43
2019-06-16 12:00:00 14.4 14 Sudeste 26 Sudeste 0 -- -- 47
2019-06-16 11:00:00 12.9 15 Este 26 Sudeste 0 -- -- 52
2019-06-16 10:00:00 11.3 14 Sudeste 23 Sudeste 0 -- -- 58
2019-06-16 09:00:00 9.8 12 Sudeste 27 Sur 0 -- -- 62
2019-06-16 08:00:00 8.4 16 Sur 32 Sur 0 -- -- 67
2019-06-16 07:00:00 7.4 21 Sur 34 Sur 0 -- -- 72
2019-06-16 06:00:00 7.3 19 Sur 30 Sur 0 -- -- 73
2019-06-16 05:00:00 7.3 18 Sur 29 Sur 0 -- -- 74
2019-06-16 04:00:00 7.4 19 Sur 29 Sur 0 -- -- 73
2019-06-16 03:00:00 7.8 15 Sur 27 Sur 0 -- -- 74
2019-06-16 02:00:00 7.1 12 Sur 22 Sur 0 -- -- 89
2019-06-16 01:00:00 4.2 3 Sur 6 Sudoeste 0 -- -- 90
2019-06-16 00:00:00 5.4 3 Sur 7 Sudoeste 0.1 -- -- 90
2019-06-15 23:00:00 5.7 3 Sudoeste 5 Sudoeste 0 -- -- 90
2019-06-15 22:00:00 6.1 0 Calma 5 Noroeste 0 -- -- 90
2019-06-15 21:00:00 6.2 3 Noroeste 6 Noroeste 0 -- -- 90
2019-06-15 20:00:00 6.4 3 Noroeste 12 Noroeste 0 -- -- 89
2019-06-15 19:00:00 6.8 6 Noroeste 15 Noroeste 0 -- -- 89
2019-06-15 18:00:00 7.5 7 Noroeste 17 Noroeste 0 -- -- 86
2019-06-15 17:00:00 9.7 9 Noroeste 19 Noroeste 0 -- -- 75
2019-06-15 16:00:00 12 5 Noroeste 17 Noroeste 0 -- -- 67
2019-06-15 15:00:00 11.2 6 Noroeste 17 Noroeste 0 -- -- 65
2019-06-15 14:00:00 11.2 6 Norte 30 Sudeste 0 -- -- 53
2019-06-15 13:00:00 11.4 8 Sur 26 Sudeste 0 -- -- 52
2019-06-15 12:00:00 9.7 11 Sur 21 Sur 0 -- -- 56
2019-06-15 11:00:00 8.3 11 Sur 26 Sur 0 -- -- 65
2019-06-15 10:00:00 8.1 9 Sudeste 17 Este 0 -- -- 75
2019-06-15 09:00:00 6 6 Sudeste 17 Sur 0 -- -- 78
2019-06-15 08:00:00 6 2 Sudeste 16 Sur 0 -- -- 86
2019-06-15 07:00:00 3.2 9 Sur 14 Sur 0 -- -- 91
2019-06-15 06:00:00 2.1 5 Sur 12 Sur 0 -- -- 91
2019-06-15 05:00:00 2.7 6 Sur 11 Sur 0 -- -- 91
2019-06-15 04:00:00 4.2 0 Calma 7 Noroeste 0 -- -- 91
2019-06-15 03:00:00 4.5 3 Norte 7 Norte 0 -- -- 91
2019-06-15 02:00:00 4.6 4 Noroeste 9 Oeste 0 -- -- 91
2019-06-15 01:00:00 4.6 3 Noroeste 9 Noroeste 0.1 -- -- 91
2019-06-15 00:00:00 4.4 4 Noroeste 14 Noroeste 0.3 -- -- 91
2019-06-14 23:00:00 4.6 9 Noroeste 20 Noroeste 0.8 -- -- 91
2019-06-14 22:00:00 5 9 Noroeste 20 Noroeste 1.1 -- -- 91
2019-06-14 21:00:00 5.5 9 Noroeste 19 Noroeste 0.3 -- -- 91
2019-06-14 20:00:00 5.6 10 Noroeste 19 Noroeste 0.3 -- -- 91
2019-06-14 19:00:00 5.8 10 Noroeste 19 Noroeste 0.6 -- -- 91
2019-06-14 18:00:00 5.9 8 Noroeste 14 Noroeste 0.1 -- -- 91
2019-06-14 17:00:00 5.9 6 Noroeste 14 Noroeste 0 -- -- 90
2019-06-14 16:00:00 6.1 6 Noroeste 19 Noroeste 0 -- -- 90
2019-06-14 15:00:00 6.3 8 Noroeste 15 Noroeste 0 -- -- 88
2019-06-14 14:00:00 7.2 5 Noroeste 13 Noroeste 0 -- -- 85
2019-06-14 13:00:00 8.1 7 Noroeste 17 Noroeste 0 -- -- 81
2019-06-14 12:00:00 7.7 5 Noroeste 14 Noroeste 0 -- -- 82
2019-06-14 11:00:00 7.5 3 Noroeste 11 Noroeste 0 -- -- 80
2019-06-14 10:00:00 8.2 3 Noroeste 8 Noroeste 0 -- -- 76
2019-06-14 09:00:00 8 5 Sudoeste 16 Sur 0 -- -- 72
2019-06-14 08:00:00 6.3 6 Sur 14 Sur 0 -- -- 76
2019-06-14 07:00:00 4.4 9 Sur 16 Sur 0 -- -- 82
2019-06-14 06:00:00 4.4 13 Sur 19 Sur 0 -- -- 86
2019-06-14 05:00:00 3.5 10 Sur 14 Sur 0 -- -- 91
2019-06-14 04:00:00 2.6 0 Calma 5 Sudoeste 0 -- -- 91
2019-06-14 03:00:00 3.6 2 Sudeste 6 Oeste 0 -- -- 91
2019-06-14 02:00:00 4.1 0 Calma 7 Oeste 0 -- -- 91
2019-06-14 01:00:00 4.1 0 Calma 5 Noroeste 0 -- -- 91
2019-06-14 00:00:00 4.3 0 Calma 5 Noroeste 0.1 -- -- 91
2019-06-13 23:00:00 4.4 0 Calma 8 Noroeste 0.2 -- -- 91
2019-06-13 22:00:00 4.4 4 Noroeste 12 Noroeste 0.6 -- -- 91
2019-06-13 21:00:00 4.6 7 Noroeste 13 Noroeste 0.6 -- -- 91
2019-06-13 20:00:00 4.6 8 Noroeste 14 Noroeste 0.2 -- -- 91
2019-06-13 19:00:00 4.7 6 Noroeste 14 Noroeste 0.1 -- -- 91
2019-06-13 18:00:00 4.7 5 Noroeste 16 Noroeste 0 -- -- 91
2019-06-13 17:00:00 4.8 8 Noroeste 17 Noroeste 0 -- -- 90
2019-06-13 16:00:00 5 4 Noroeste 15 Noroeste 0 -- -- 89
2019-06-13 15:00:00 5.3 6 Noroeste 14 Noroeste 0 -- -- 86
2019-06-13 14:00:00 6.1 5 Noroeste 13 Norte 0 -- -- 84
2019-06-13 13:00:00 7 5 Noroeste 13 Noroeste 0 -- -- 83
2019-06-13 12:00:00 5.8 4 Noroeste 15 Noroeste 0 -- -- 85
2019-06-13 11:00:00 7.1 4 Norte 9 Norte 0 -- -- 85
2019-06-13 10:00:00 5.7 4 Noroeste 10 Noroeste 0 -- -- 85
2019-06-13 09:00:00 5.9 0 Calma 8 Noroeste 0 -- -- 90
2019-06-13 08:00:00 3.5 0 Calma 8 Oeste 0 -- -- 91
2019-06-13 07:00:00 2.3 0 Calma 12 Oeste 0 -- -- 91
2019-06-13 06:00:00 2.1 5 Sudoeste 8 Sudoeste 0 -- -- 91
2019-06-13 05:00:00 2.7 7 Sur 12 Sur 0 -- -- 91
2019-06-13 04:00:00 2.1 0 Calma 4 Sudoeste 0 -- -- 91
2019-06-13 03:00:00 2.7 0 Calma 6 Sudoeste 0 -- -- 91
2019-06-13 02:00:00 2.9 0 Calma 2 Noroeste 0.1 -- -- 91
2019-06-13 01:00:00 2.9 0 Calma 6 Noroeste 0 -- -- 91
2019-06-13 00:00:00 3 0 Calma 8 Noroeste 0.1 -- -- 91
2019-06-12 23:00:00 3 3 Noroeste 8 Oeste 0.3 -- -- 91
2019-06-12 22:00:00 3.1 4 Noroeste 12 Noroeste 0.1 -- -- 90
2019-06-12 21:00:00 3.6 4 Noroeste 15 Noroeste 0 -- -- 90
2019-06-12 20:00:00 4.1 7 Noroeste 17 Noroeste 0 -- -- 90
2019-06-12 19:00:00 4.6 9 Noroeste 19 Oeste 0 -- -- 86
2019-06-12 18:00:00 5.5 6 Noroeste 18 Noroeste 0 -- -- 80
2019-06-12 17:00:00 6.6 9 Noroeste 18 Noroeste 0 -- -- 76
2019-06-12 16:00:00 6.6 8 Noroeste 18 Noroeste 0 -- -- 75
2019-06-12 15:00:00 8 8 Noroeste 18 Noroeste 0 -- -- 73
2019-06-12 14:00:00 7.3 5 Norte 16 Noroeste 0 -- -- 76
2019-06-12 13:00:00 6.3 7 Norte 14 Noroeste 0 -- -- 78
2019-06-12 12:00:00 5.3 5 Noroeste 10 Norte 0 -- -- 82
2019-06-12 11:00:00 4.3 3 Nordeste 12 Nordeste 0 -- -- 88
2019-06-12 10:00:00 4 5 Norte 14 Norte 0 -- -- 89
2019-06-12 09:00:00 3.1 4 Nordeste 10 Norte 0 -- -- 91
2019-06-12 08:00:00 0.9 7 Noroeste 24 Noroeste 0 -- -- 91
2019-06-12 07:00:00 0.5 10 Noroeste 26 Oeste 0 -- -- 91
2019-06-12 06:00:00 0.4 14 Noroeste 24 Noroeste 0 -- -- 91
2019-06-12 05:00:00 0 8 Noroeste 27 Oeste 0 -- -- 91
2019-06-12 04:00:00 0.2 10 Noroeste 23 Noroeste 0 -- -- 91
2019-06-12 03:00:00 1.1 8 Noroeste 23 Noroeste 0 -- -- 91
2019-06-12 02:00:00 1.2 11 Noroeste 29 Noroeste 0 -- -- 91
2019-06-12 01:00:00 1.5 16 Noroeste 29 Noroeste 0 -- -- 91
2019-06-12 00:00:00 1.8 8 Noroeste 22 Noroeste 0 -- -- 91
2019-06-11 23:00:00 1.9 12 Noroeste 30 Noroeste 0.1 -- -- 91
2019-06-11 22:00:00 2.4 11 Noroeste 35 Noroeste 0.2 -- -- 91
2019-06-11 21:00:00 3 13 Noroeste 34 Noroeste 0.2 -- -- 91
2019-06-11 20:00:00 3.1 8 Noroeste 30 Noroeste 0 -- -- 91
2019-06-11 19:00:00 3.6 13 Noroeste 34 Noroeste 1.4 -- -- 91
2019-06-11 18:00:00 3.3 11 Noroeste 33 Noroeste 0.5 -- -- 91
2019-06-11 17:00:00 3.5 13 Noroeste 37 Noroeste 1.1 -- -- 91
2019-06-11 16:00:00 3.2 10 Noroeste 35 Noroeste 1.3 -- -- 91
2019-06-11 15:00:00 2.7 15 Noroeste 44 Noroeste 0.7 -- -- 91
2019-06-11 14:00:00 2.1 12 Noroeste 37 Noroeste 0.7 -- -- 91
2019-06-11 13:00:00 1.6 13 Noroeste 36 Noroeste 0.9 -- -- 91
2019-06-11 12:00:00 1.2 16 Noroeste 39 Noroeste 1.8 -- -- 91
2019-06-11 11:00:00 1 12 Noroeste 31 Noroeste 1 -- -- 91
2019-06-11 10:00:00 0.6 14 Noroeste 38 Noroeste 0.6 -- -- 91
2019-06-11 09:00:00 0.7 14 Noroeste 34 Noroeste 0.2 -- -- 91
2019-06-11 08:00:00 0.5 18 Noroeste 45 Noroeste 0.2 -- -- 91
2019-06-11 07:00:00 0.9 20 Noroeste 44 Noroeste 1.1 -- -- 91
2019-06-11 06:00:00 1.1 19 Noroeste 50 Noroeste 2 -- -- 91
2019-06-11 05:00:00 1.6 18 Noroeste 40 Noroeste 1.3 -- -- 91
2019-06-11 04:00:00 2 15 Noroeste 34 Noroeste 0.2 -- -- 91
2019-06-11 03:00:00 2.1 13 Noroeste 33 Noroeste 0.1 -- -- 91
2019-06-11 02:00:00 2.4 10 Noroeste 31 Noroeste 0 -- -- 91
2019-06-11 01:00:00 2.5 13 Noroeste 31 Noroeste 0.6 -- -- 91
2019-06-11 00:00:00 2.7 15 Noroeste 33 Noroeste 0.5 -- -- 91
2019-06-10 23:00:00 3.3 13 Noroeste 27 Noroeste 0.6 -- -- 91
2019-06-10 22:00:00 3.5 10 Noroeste 26 Noroeste 0.9 -- -- 91
2019-06-10 21:00:00 3.6 7 Noroeste 20 Noroeste 1.1 -- -- 91
2019-06-10 20:00:00 3.8 6 Noroeste 18 Noroeste 0.2 -- -- 90
2019-06-10 19:00:00 4.2 6 Noroeste 20 Noroeste 0 -- -- 90
2019-06-10 18:00:00 5.1 10 Noroeste 26 Noroeste 0 -- -- 88
2019-06-10 17:00:00 6.4 8 Noroeste 21 Noroeste 0 -- -- 79
2019-06-10 16:00:00 6.6 5 Noroeste 19 Noroeste 0 -- -- 77
2019-06-10 15:00:00 6.7 7 Noroeste 15 Noroeste 0 -- -- 78
2019-06-10 14:00:00 7.6 8 Noroeste 18 Noroeste 0 -- -- 80
2019-06-10 13:00:00 6.7 9 Norte 17 Norte 0 -- -- 89
2019-06-10 12:00:00 5.7 3 Noroeste 13 Nordeste 0 -- -- 91
2019-06-10 11:00:00 5 4 Oeste 10 Noroeste 0 -- -- 91
2019-06-10 10:00:00 4 4 Noroeste 10 Noroeste 0 -- -- 91
2019-06-10 09:00:00 3.6 4 Norte 8 Noroeste 0 -- -- 91
2019-06-10 08:00:00 3.1 4 Noroeste 11 Noroeste 0 -- -- 91
2019-06-10 07:00:00 3.1 4 Noroeste 10 Noroeste 0 -- -- 91
2019-06-10 06:00:00 2.5 0 Calma 4 Noroeste 0 -- -- 91
2019-06-10 05:00:00 1.2 0 Calma 7 Sudoeste 0 -- -- 91
2019-06-10 04:00:00 1.6 0 Calma 5 Oeste 0 -- -- 91
2019-06-10 03:00:00 2.1 0 Calma 11 Noroeste 0 -- -- 91
2019-06-10 02:00:00 3 0 Calma 12 Oeste 0 -- -- 91
2019-06-10 01:00:00 3.6 5 Noroeste 9 Noroeste 0.1 -- -- 91
2019-06-10 00:00:00 3.6 4 Noroeste 16 Noroeste 0 -- -- 91
2019-06-09 23:00:00 3.6 11 Noroeste 23 Noroeste 0.2 -- -- 91
2019-06-09 22:00:00 3.8 12 Noroeste 26 Noroeste 0.4 -- -- 91
2019-06-09 21:00:00 4.2 12 Noroeste 23 Noroeste 0.5 -- -- 91
2019-06-09 20:00:00 4.4 12 Noroeste 27 Noroeste 1 -- -- 91
2019-06-09 19:00:00 4.8 13 Noroeste 24 Noroeste 0.6 -- -- 91
2019-06-09 18:00:00 5 11 Noroeste 21 Noroeste 1 -- -- 91
2019-06-09 17:00:00 5.3 7 Noroeste 16 Noroeste 0.3 -- -- 91
2019-06-09 16:00:00 5.3 9 Noroeste 19 Noroeste 0 -- -- 91
2019-06-09 15:00:00 5.3 9 Noroeste 17 Noroeste 0 -- -- 91
2019-06-09 14:00:00 5.4 6 Noroeste 13 Noroeste 0 -- -- 91
2019-06-09 13:00:00 5.4 7 Noroeste 13 Noroeste 0 -- -- 91
2019-06-09 12:00:00 5.4 5 Noroeste 12 Noroeste 0.1 -- -- 91
2019-06-09 11:00:00 5.5 4 Noroeste 8 Noroeste 0 -- -- 91
2019-06-09 10:00:00 5.5 3 Noroeste 8 Noroeste 0 -- -- 91
2019-06-09 09:00:00 5 0 Calma 6 Este 0 -- -- 91
2019-06-09 08:00:00 3.8 3 Sudeste -- -- -- -- -- 91
2019-06-09 07:00:00 -- -- -- -- -- -- -- -- --
2019-06-09 06:00:00 3.1 4 Sur 5 Sur 0 -- -- 91
2019-06-09 05:00:00 3.4 0 Calma 7 Sur 0 -- -- 91
2019-06-09 04:00:00 3.2 4 Sur 7 Sudoeste 0.1 -- -- 91
2019-06-09 03:00:00 4.3 3 Sudoeste 6 Sur 0 -- -- 91
2019-06-09 02:00:00 4.7 3 Norte 6 Noroeste 0 -- -- 91
2019-06-09 01:00:00 5 4 Norte 7 Noroeste 0.1 -- -- 91
2019-06-09 00:00:00 5.1 2 Noroeste 7 Noroeste 0.2 -- -- 91
2019-06-08 23:00:00 5.1 2 Noroeste 10 Noroeste 0.2 -- -- 91
2019-06-08 22:00:00 5.1 4 Noroeste 9 Noroeste 0.1 -- -- 91
2019-06-08 21:00:00 5.2 3 Noroeste 13 Noroeste 0.3 -- -- 91
2019-06-08 20:00:00 5.3 6 Noroeste 15 Noroeste 0.5 -- -- 91
2019-06-08 19:00:00 5.6 6 Noroeste 14 Noroeste 0.3 -- -- 90
2019-06-08 18:00:00 5.8 8 Noroeste 17 Noroeste 0 -- -- 89
2019-06-08 17:00:00 6.8 5 Noroeste 17 Noroeste 0 -- -- 84
2019-06-08 16:00:00 8.5 7 Noroeste 17 Noroeste 0 -- -- 73
2019-06-08 15:00:00 10.3 9 Noroeste 18 Noroeste 0 -- -- 61
2019-06-08 14:00:00 10.2 8 Sudeste 26 Sur 0 -- -- 47
2019-06-08 13:00:00 9.4 12 Sur 32 Sudoeste 0 -- -- 51
2019-06-08 12:00:00 8.5 9 Sur 30 Sudeste 0 -- -- 55
2019-06-08 11:00:00 7 14 Sudeste 28 Este 0 -- -- 63
2019-06-08 10:00:00 5.5 12 Sur 26 Sur 0 -- -- 73
2019-06-08 09:00:00 4 10 Sur 19 Sur 0 -- -- 77
2019-06-08 08:00:00 3.4 13 Sur 27 Sur 0 -- -- 79
2019-06-08 07:00:00 1.5 8 Sur 12 Sur 0 -- -- 82
2019-06-08 06:00:00 0.6 8 Sudoeste 10 Sudoeste 0 -- -- 85
2019-06-08 05:00:00 1.6 6 Sur 8 Sur 0 -- -- 85
2019-06-08 04:00:00 2.6 0 Calma 7 Sur 0 -- -- 88
2019-06-08 03:00:00 1.5 2 Oeste 8 Sur 0 -- -- 87
2019-06-08 02:00:00 3.1 0 Calma 7 Noroeste 0 -- -- 89
2019-06-08 01:00:00 3.2 3 Noroeste 11 Oeste 0 -- -- 89
2019-06-08 00:00:00 3.4 4 Noroeste 16 Noroeste 0 -- -- 89
2019-06-07 23:00:00 3.8 5 Noroeste 16 Noroeste 0 -- -- 88
2019-06-07 22:00:00 4 5 Noroeste 12 Noroeste 0 -- -- 81
2019-06-07 21:00:00 5.3 4 Noroeste 13 Noroeste 0 -- -- 72
2019-06-07 20:00:00 5.6 6 Noroeste 20 Noroeste 0 -- -- 69
2019-06-07 19:00:00 7 8 Noroeste 26 Noroeste 0 -- -- 61
2019-06-07 18:00:00 7.3 3 Noroeste 22 Sur 0 -- -- 51
2019-06-07 17:00:00 7.3 6 Oeste 23 Oeste 0 -- -- 48
2019-06-07 16:00:00 7.6 8 Noroeste 23 Oeste 0 -- -- 46
2019-06-07 15:00:00 8.7 3 Noroeste 32 Oeste 0 -- -- 44
2019-06-07 14:00:00 8.2 7 Noroeste 28 Sudoeste 0 -- -- 44
2019-06-07 13:00:00 7.3 4 Sudoeste 30 Sur 0 -- -- 48
2019-06-07 12:00:00 6.6 10 Sur 27 Sur 0 -- -- 51
2019-06-07 11:00:00 6 6 Sur 26 Sur 0 -- -- 56
2019-06-07 10:00:00 4.2 17 Sur 31 Sudoeste 0 -- -- 60
2019-06-07 09:00:00 3.3 19 Sur 36 Sur 0 -- -- 62
2019-06-07 08:00:00 3 0 Calma 28 Oeste 0 -- -- 67
2019-06-07 07:00:00 1.8 3 Noroeste 29 Sur 0 -- -- 69
2019-06-07 06:00:00 1.9 8 Noroeste 46 Sur 0 -- -- 71
2019-06-07 05:00:00 2.1 21 Sur 38 Sur 0 -- -- 68
2019-06-07 04:00:00 2.4 7 Norte 36 Oeste 0 -- -- 68
2019-06-07 03:00:00 3.1 12 Sudoeste 41 Sudoeste 0 -- -- 67
2019-06-07 02:00:00 3.1 19 Sudoeste 50 Oeste 0 -- -- 67
2019-06-07 01:00:00 3.3 23 Sur 49 Sudoeste 0 -- -- 72
2019-06-07 00:00:00 3.5 26 Sur 57 Sudoeste 0 -- -- 67
2019-06-06 23:00:00 3.7 19 Sudoeste 41 Sudoeste 0 -- -- 69
2019-06-06 22:00:00 4.2 19 Sudoeste 49 Sudoeste 0.2 -- -- 67
2019-06-06 21:00:00 4.9 21 Sudoeste 58 Sudeste 5.8 -- -- 75
2019-06-06 20:00:00 6.5 14 Sur 64 Sudoeste 3.3 -- -- 81
2019-06-06 19:00:00 6.5 27 Sur 61 Sur 4.4 -- -- 80
2019-06-06 18:00:00 6.1 24 Sur 59 Sur 2 -- -- 71
2019-06-06 17:00:00 6.5 32 Sur 71 Sur 1.1 -- -- 66
2019-06-06 16:00:00 7.2 34 Sur 67 Sudoeste 0 -- -- 55
2019-06-06 15:00:00 6.7 41 Sur 73 Sur 0 -- -- 55
2019-06-06 14:00:00 6.3 35 Sur 68 Sur 0 -- -- 57
2019-06-06 13:00:00 6 36 Sur 63 Sur 0 -- -- 60
2019-06-06 12:00:00 4.6 17 Sudeste 46 Sudeste 0 -- -- 67
2019-06-06 11:00:00 3.7 24 Sur 52 Sur 0 -- -- 67
2019-06-06 10:00:00 3.5 35 Sur 49 Sur 0 -- -- 68
2019-06-06 09:00:00 3 27 Sur 44 Sur 0 -- -- 71
2019-06-06 08:00:00 2.1 27 Sur 47 Sur 0 -- -- 75
2019-06-06 07:00:00 1.1 20 Sur 32 Sur 0 -- -- 76
2019-06-06 06:00:00 1.4 9 Sur 23 Sur 0 -- -- 72
2019-06-06 05:00:00 1.3 12 Sur 20 Sur 0 -- -- 73
2019-06-06 04:00:00 0.9 8 Sur 15 Sur 0 -- -- 74
2019-06-06 03:00:00 0.6 6 Sur 14 Sudoeste 0 -- -- 76
2019-06-06 02:00:00 1 7 Sudoeste 12 Sur 0 -- -- 78
2019-06-06 01:00:00 1 7 Sudoeste 9 Sudoeste 0 -- -- 86
2019-06-06 00:00:00 2.3 3 Sudoeste 6 Nordeste 0 -- -- 87
2019-06-05 23:00:00 2.8 0 Calma 8 Oeste 0 -- -- 88
2019-06-05 22:00:00 2.8 3 Norte 12 Noroeste 0 -- -- 87
2019-06-05 21:00:00 3.2 0 Calma 7 Noroeste 0 -- -- 85
2019-06-05 20:00:00 3.5 3 Norte 10 Noroeste 0 -- -- 85
2019-06-05 19:00:00 3.6 3 Norte 16 Noroeste 0.1 -- -- 86
2019-06-05 18:00:00 3.7 5 Noroeste 21 Noroeste 0 -- -- 86
2019-06-05 17:00:00 3.9 4 Norte 21 Noroeste 0.5 -- -- 88
2019-06-05 16:00:00 4.5 5 Noroeste 19 Norte 1.2 -- -- 87
2019-06-05 15:00:00 3.7 8 Noroeste 22 Noroeste 1.7 -- -- 85
2019-06-05 14:00:00 4.4 0 Calma 25 Noroeste 1.1 -- -- 86
2019-06-05 13:00:00 5.5 3 Norte 12 Noroeste 0.5 -- -- 90
2019-06-05 12:00:00 3.8 8 Noroeste 23 Noroeste 0.2 -- -- 90
2019-06-05 11:00:00 4.1 5 Noroeste 17 Noroeste 0.1 -- -- 91
2019-06-05 10:00:00 3.1 9 Noroeste 24 Noroeste 0 -- -- 91
2019-06-05 09:00:00 3.2 10 Noroeste 20 Noroeste 0 -- -- 91
2019-06-05 08:00:00 2.9 9 Noroeste 23 Noroeste 0.3 -- -- 91
2019-06-05 07:00:00 2.7 6 Noroeste 21 Noroeste 0 -- -- 91
2019-06-05 06:00:00 2.9 10 Noroeste 26 Noroeste 0.1 -- -- 91
2019-06-05 05:00:00 3.2 10 Noroeste 23 Noroeste 0.2 -- -- 91
2019-06-05 04:00:00 3.3 5 Noroeste 15 Noroeste 0 -- -- 91
2019-06-05 03:00:00 3.4 3 Norte 14 Noroeste 0.1 -- -- 91
2019-06-05 02:00:00 3.6 4 Norte 20 Nordeste 0 -- -- 91
2019-06-05 01:00:00 3.8 4 Norte 22 Norte 0.4 -- -- 91
2019-06-05 00:00:00 4.4 5 Noroeste 21 Noroeste 0.2 -- -- 91
2019-06-04 23:00:00 4.4 9 Noroeste 33 Noroeste 1.6 -- -- 91
2019-06-04 22:00:00 5.4 6 Noroeste 17 Oeste 0.3 -- -- 91
2019-06-04 21:00:00 6 6 Noroeste 16 Noroeste 0.3 -- -- 91
2019-06-04 20:00:00 6.4 5 Noroeste 21 Noroeste 0 -- -- 90
2019-06-04 19:00:00 7.2 6 Noroeste 15 Noroeste 0 -- -- 89
2019-06-04 18:00:00 8.7 5 Noroeste 15 Noroeste 0.8 -- -- 87
2019-06-04 17:00:00 9.1 3 Norte 22 Norte 0 -- -- 79
2019-06-04 16:00:00 9.8 8 Noroeste 18 Noroeste 0 -- -- 82
2019-06-04 15:00:00 10.5 11 Noroeste 32 Sur 0 -- -- 70
2019-06-04 14:00:00 13.8 14 Sudeste 30 Sudoeste 0 -- -- 55
2019-06-04 13:00:00 13.1 8 Sudoeste 27 Sur 0 -- -- 56
2019-06-04 12:00:00 12.2 10 Sur 20 Sur 0 -- -- 56
2019-06-04 11:00:00 11.4 8 Sur 21 Sur 0 -- -- 57
2019-06-04 10:00:00 11.5 12 Sur 20 Sur 0 -- -- 55
2019-06-04 09:00:00 11.3 10 Sur 25 Sur 0 -- -- 51
2019-06-04 08:00:00 10.1 18 Sur 28 Sur 0 -- -- 51
2019-06-04 07:00:00 10 15 Sur 24 Sur 0 -- -- 50
2019-06-04 06:00:00 10 12 Sur 26 Sur 0 -- -- 56
2019-06-04 05:00:00 11 15 Sur 25 Sur 0 -- -- 57
2019-06-04 04:00:00 8.5 3 Sur 13 Sur 0 -- -- 81
2019-06-04 03:00:00 11.6 9 Sur 19 Sur 0 -- -- 64
2019-06-04 02:00:00 10 0 Calma 22 Sur 0 -- -- 75
2019-06-04 01:00:00 13.5 15 Sur 26 Sur 0 -- -- 57
2019-06-04 00:00:00 11.2 8 Sur 12 Sur 0 -- -- 80
2019-06-03 23:00:00 10.7 0 Calma 10 Oeste 0 -- -- 89
2019-06-03 22:00:00 11.6 0 Calma 9 Noroeste 0 -- -- 90
2019-06-03 21:00:00 11.7 0 Calma 8 Norte 0 -- -- 89
2019-06-03 20:00:00 11.8 3 Noroeste 8 Noroeste 0 -- -- 89
2019-06-03 19:00:00 12.2 3 Noroeste 10 Noroeste 0 -- -- 88
2019-06-03 18:00:00 13.2 5 Noroeste 17 Noroeste 0 -- -- 84
2019-06-03 17:00:00 16.3 7 Noroeste 17 Noroeste 0 -- -- 73
2019-06-03 16:00:00 16.5 6 Noroeste 14 Norte 0 -- -- 72
2019-06-03 15:00:00 16.5 5 Norte 16 Norte 0 -- -- 69
2019-06-03 14:00:00 15.9 5 Noroeste 13 Noroeste 0 -- -- 71
2019-06-03 13:00:00 15.8 6 Noroeste 16 Noroeste 0 -- -- 70
2019-06-03 12:00:00 15.3 6 Noroeste 12 Noroeste 0 -- -- 69
2019-06-03 11:00:00 15.4 6 Noroeste 11 Noroeste 0 -- -- 66
2019-06-03 10:00:00 14.7 3 Norte 9 Noroeste 0 -- -- 66
2019-06-03 09:00:00 13 0 Calma 12 Oeste 0 -- -- 71
2019-06-03 08:00:00 10.7 0 Calma 8 Noroeste 0 -- -- 81
2019-06-03 07:00:00 10.6 0 Calma 15 Sur 0 -- -- 69
2019-06-03 06:00:00 12.3 8 Sur 16 Sur 0 -- -- 52
2019-06-03 05:00:00 10.8 0 Calma 8 Sudoeste 0 -- -- 65
2019-06-03 04:00:00 11 0 Calma 12 Oeste 0 -- -- 69
2019-06-03 03:00:00 11.8 5 Sudoeste 19 Sur 0.3 -- -- 54
2019-06-03 02:00:00 12.4 3 Oeste 9 Sudoeste 0.1 -- -- 56
2019-06-03 01:00:00 11.7 5 Sur 9 Sudoeste 0 -- -- 63
2019-06-03 00:00:00 11.9 6 Sudoeste 9 Sur 0 -- -- 62
2019-06-02 23:00:00 13 2 Sudeste 9 Sudoeste 0 -- -- 61
2019-06-02 22:00:00 11.9 0 Calma 8 Noroeste 0 -- -- 82
2019-06-02 21:00:00 12.3 2 Norte 10 Oeste 0 -- -- 79
2019-06-02 20:00:00 14.3 2 Noroeste 9 Oeste 0 -- -- 71
2019-06-02 19:00:00 15.9 4 Noroeste 10 Noroeste 0 -- -- 64
2019-06-02 18:00:00 17.5 8 Noroeste 19 Noroeste 0 -- -- 55
2019-06-02 17:00:00 19.7 8 Noroeste 22 Noroeste 0 -- -- 40
2019-06-02 16:00:00 19.6 9 Noroeste 25 Noroeste 0 -- -- 34
2019-06-02 15:00:00 21.5 5 Noroeste 23 Sudoeste 0 -- -- 29
2019-06-02 14:00:00 20.8 8 Oeste 22 Noroeste 0 -- -- 30
2019-06-02 13:00:00 19.8 7 Sur 19 Este 0 -- -- 31
2019-06-02 12:00:00 19 7 Sur 23 Sur 0 -- -- 33
2019-06-02 11:00:00 17.9 10 Sudeste 19 Sudeste 0 -- -- 39
2019-06-02 10:00:00 16.5 7 Sur 23 Sur 0 -- -- 47
2019-06-02 09:00:00 16.5 10 Sur 27 Sur 0 -- -- 50
2019-06-02 08:00:00 14 14 Sur 22 Sur 0 -- -- 53
2019-06-02 07:00:00 13.7 16 Sur 21 Sur 0 -- -- 52
2019-06-02 06:00:00 14 13 Sur 19 Sur 0 -- -- 53
2019-06-02 05:00:00 11.2 6 Sur 15 Sudoeste 0 -- -- 58
2019-06-02 04:00:00 12.5 10 Sudoeste 14 Sur 0 -- -- 55
2019-06-02 03:00:00 12.5 9 Sudoeste 13 Sudoeste 0 -- -- 58
2019-06-02 02:00:00 12.1 6 Sudoeste 12 Sur 0 -- -- 67
2019-06-02 01:00:00 12.3 8 Sur 14 Sudoeste 0 -- -- 69
2019-06-02 00:00:00 12 4 Sudoeste 8 Sudoeste 0 -- -- 70
2019-06-01 23:00:00 14.1 6 Sudoeste 8 Sudoeste 0 -- -- 60
2019-06-01 22:00:00 15 0 Calma 8 Norte 0 -- -- 53
2019-06-01 21:00:00 17.8 3 Noroeste 13 Oeste 0 -- -- 47
2019-06-01 20:00:00 19.3 7 Noroeste 17 Noroeste 0 -- -- 45
2019-06-01 19:00:00 20.6 7 Noroeste 23 Noroeste 0 -- -- 44
2019-06-01 18:00:00 21.3 9 Noroeste 21 Noroeste 0 -- -- 42
2019-06-01 17:00:00 22.3 6 Noroeste 18 Noroeste 0 -- -- 40
2019-06-01 16:00:00 22.4 7 Oeste 20 Sudoeste 0 -- -- 38
2019-06-01 15:00:00 22.9 6 Sudeste 26 Sur 0 -- -- 31
2019-06-01 14:00:00 22.3 8 Sudeste 24 Este 0 -- -- 31
2019-06-01 13:00:00 21.6 10 Sur 28 Sur 0 -- -- 32
2019-06-01 12:00:00 21.3 8 Sudeste 22 Sudeste 0 -- -- 34
2019-06-01 11:00:00 19.9 13 Sudeste 22 Sudeste 0 -- -- 37
2019-06-01 10:00:00 19.3 11 Sudeste 21 Sur 0 -- -- 38
2019-06-01 09:00:00 17.4 15 Sur 28 Sur 0 -- -- 39
2019-06-01 08:00:00 16.5 20 Sur 31 Sur 0 -- -- 40
2019-06-01 07:00:00 14.6 21 Sur 25 Sur 0 -- -- 43
2019-06-01 06:00:00 15.4 17 Sur 21 Sur 0 -- -- 43
2019-06-01 05:00:00 15.7 16 Sur 21 Sur 0 -- -- 43
2019-06-01 04:00:00 15.5 16 Sur 20 Sur 0 -- -- 43
2019-06-01 03:00:00 15.9 16 Sur 19 Sur 0 -- -- 45
2019-06-01 02:00:00 13.7 11 Sur 14 Sudoeste 0 -- -- 52
2019-06-01 01:00:00 14.1 10 Sudoeste 17 Sudoeste 0 -- -- 49
2019-06-01 00:00:00 13.8 10 Sudoeste 15 Sudoeste 0 -- -- 47
2019-05-31 23:00:00 13.1 8 Sur 11 Sudoeste 0 -- -- 56
2019-05-31 22:00:00 13.6 5 Sudoeste 9 Sur 0 -- -- 55
2019-05-31 21:00:00 18.5 6 Noroeste 18 Noroeste 0 -- -- 38
2019-05-31 20:00:00 20 8 Noroeste 23 Noroeste 0 -- -- 35
2019-05-31 19:00:00 20.6 13 Noroeste 25 Noroeste 0 -- -- 35
2019-05-31 18:00:00 21.2 13 Noroeste 26 Noroeste 0 -- -- 35
2019-05-31 17:00:00 22 8 Norte 24 Noroeste 0 -- -- 32
2019-05-31 16:00:00 22.2 12 Noroeste 20 Noroeste 0 -- -- 30
2019-05-31 15:00:00 22.2 9 Noroeste 19 Nordeste 0 -- -- 29
2019-05-31 14:00:00 21.5 7 Sudoeste 18 Sudoeste 0 -- -- 26
2019-05-31 13:00:00 21 4 Sudeste 16 Sudeste 0 -- -- 29
2019-05-31 12:00:00 20.3 5 Sudeste 16 Sudeste 0 -- -- 33
2019-05-31 11:00:00 19 8 Sudeste 20 Sudeste 0 -- -- 37
2019-05-31 10:00:00 17.4 12 Sur 21 Sur 0 -- -- 38
2019-05-31 09:00:00 16.1 14 Sur 22 Sur 0 -- -- 44
2019-05-31 08:00:00 14.8 17 Sur 23 Sur 0 -- -- 45
2019-05-31 07:00:00 13.4 20 Sur 23 Sur 0 -- -- 45
2019-05-31 06:00:00 13.9 17 Sur 24 Sur 0 -- -- 39
2019-05-31 05:00:00 14.1 17 Sur 20 Sur 0 -- -- 35
2019-05-31 04:00:00 14.1 15 Sur 19 Sur 0 -- -- 36
2019-05-31 03:00:00 13.7 15 Sur 19 Sur 0 -- -- 40
2019-05-31 02:00:00 12.3 12 Sur 18 Sur 0 -- -- 45
2019-05-31 01:00:00 12.1 13 Sur 18 Sur 0 -- -- 52
2019-05-31 00:00:00 10.6 6 Sur 9 Sudoeste 0 -- -- 68
2019-05-30 23:00:00 11.3 5 Sudoeste 8 Sudoeste 0 -- -- 69
2019-05-30 22:00:00 13 4 Oeste 10 Noroeste 0 -- -- 66
2019-05-30 21:00:00 16.4 6 Noroeste 17 Oeste 0 -- -- 52
2019-05-30 20:00:00 18.1 11 Noroeste 25 Noroeste 0 -- -- 45
2019-05-30 19:00:00 19 12 Noroeste 29 Noroeste 0 -- -- 42
2019-05-30 18:00:00 19.7 12 Noroeste 26 Noroeste 0 -- -- 38
2019-05-30 17:00:00 19.9 10 Noroeste 22 Noroeste 0 -- -- 39
2019-05-30 16:00:00 20.2 10 Noroeste 21 Noroeste 0 -- -- 38
2019-05-30 15:00:00 19.5 9 Noroeste 18 Noroeste 0 -- -- 39
2019-05-30 14:00:00 18.9 7 Noroeste 18 Norte 0 -- -- 42
2019-05-30 13:00:00 18.2 8 Noroeste 15 Noroeste 0 -- -- 42
2019-05-30 12:00:00 17.8 5 Noroeste 11 Noroeste 0 -- -- 43
2019-05-30 11:00:00 16.8 4 Noroeste 9 Noroeste 0 -- -- 42
2019-05-30 10:00:00 16.5 4 Noroeste 7 Noroeste 0 -- -- 40
2019-05-30 09:00:00 16 0 Calma 4 Sur 0 -- -- 44
2019-05-30 08:00:00 12.9 4 Sudoeste 14 Sudoeste 0 -- -- 56
2019-05-30 07:00:00 11 12 Sudoeste 16 Sudoeste 0 -- -- 53
2019-05-30 06:00:00 9.7 11 Sudoeste 14 Sudoeste 0 -- -- 52
2019-05-30 05:00:00 8.2 6 Sudoeste 12 Sudoeste 0 -- -- 52
2019-05-30 04:00:00 8.3 10 Sudoeste 13 Sudoeste 0 -- -- 50
2019-05-30 03:00:00 9 10 Sudoeste 19 Sur 0 -- -- 47
2019-05-30 02:00:00 8.3 8 Sur 12 Sudoeste 0 -- -- 53
2019-05-30 01:00:00 10 9 Sudoeste 15 Sudoeste 0 -- -- 47
2019-05-30 00:00:00 8.2 8 Sudoeste 12 Sudoeste 0 -- -- 65
2019-05-29 23:00:00 8.7 6 Oeste 10 Oeste 0 -- -- 73
2019-05-29 22:00:00 10.2 0 Calma 8 Noroeste 0 -- -- 75
2019-05-29 21:00:00 12.2 5 Noroeste 15 Noroeste 0 -- -- 69
2019-05-29 20:00:00 13.9 7 Noroeste 21 Noroeste 0 -- -- 59
2019-05-29 19:00:00 14.3 12 Noroeste 26 Noroeste 0 -- -- 52
2019-05-29 18:00:00 14.7 10 Noroeste 22 Noroeste 0 -- -- 50
2019-05-29 17:00:00 14.6 11 Noroeste 23 Noroeste 0 -- -- 50
2019-05-29 16:00:00 14.2 10 Noroeste 22 Noroeste 0 -- -- 54
2019-05-29 15:00:00 13.8 10 Noroeste 28 Noroeste 0 -- -- 56
2019-05-29 14:00:00 12.9 12 Noroeste 24 Noroeste 0 -- -- 56
2019-05-29 13:00:00 11.9 10 Noroeste 21 Noroeste 0 -- -- 57
2019-05-29 12:00:00 10.9 10 Noroeste 19 Noroeste 0 -- -- 60
2019-05-29 11:00:00 9.6 8 Noroeste 18 Noroeste 0 -- -- 62
2019-05-29 10:00:00 8.7 9 Noroeste 18 Noroeste 0 -- -- 65
2019-05-29 09:00:00 8 5 Noroeste 14 Noroeste 0 -- -- 70
2019-05-29 08:00:00 5.3 0 Calma 9 Oeste 0 -- -- 87
2019-05-29 07:00:00 3.8 3 Oeste 15 Noroeste 0 -- -- 88
2019-05-29 06:00:00 3.9 7 Noroeste 17 Noroeste 0 -- -- 88
2019-05-29 05:00:00 3.9 5 Noroeste 17 Noroeste 0 -- -- 89
2019-05-29 04:00:00 3.7 6 Noroeste 21 Oeste 0 -- -- 90
2019-05-29 03:00:00 3.4 7 Noroeste 18 Oeste 0 -- -- 91
2019-05-29 02:00:00 3.3 7 Noroeste 17 Noroeste 0 -- -- 91
2019-05-29 01:00:00 3.4 8 Noroeste 19 Noroeste 0 -- -- 90
2019-05-29 00:00:00 3.4 9 Noroeste 24 Noroeste 0 -- -- 90
2019-05-28 23:00:00 3.8 11 Noroeste 30 Noroeste 0 -- -- 90
2019-05-28 22:00:00 4.3 15 Noroeste 29 Noroeste 0 -- -- 88
2019-05-28 21:00:00 5 12 Noroeste 32 Noroeste 0 -- -- 82
2019-05-28 20:00:00 6.2 18 Noroeste 37 Noroeste 0 -- -- 77
2019-05-28 19:00:00 5.8 18 Noroeste 36 Noroeste 0 -- -- 76
2019-05-28 18:00:00 6.6 17 Noroeste 36 Noroeste 0 -- -- 71
2019-05-28 17:00:00 7.3 15 Noroeste 36 Noroeste 0 -- -- 68
2019-05-28 16:00:00 6.9 21 Noroeste 35 Noroeste 0 -- -- 69
2019-05-28 15:00:00 6.6 17 Noroeste 36 Noroeste 0 -- -- 73
2019-05-28 14:00:00 7.3 12 Noroeste 42 Oeste 0 -- -- 76
2019-05-28 13:00:00 5.5 15 Noroeste 37 Noroeste 0 -- -- 82
2019-05-28 12:00:00 4.8 14 Noroeste 33 Noroeste 0 -- -- 91
2019-05-28 11:00:00 4.1 11 Noroeste 21 Noroeste 0 -- -- 91
2019-05-28 10:00:00 2.6 9 Noroeste 24 Noroeste 0 -- -- 91
2019-05-28 09:00:00 2.3 12 Noroeste 23 Noroeste 0 -- -- 91
2019-05-28 08:00:00 2.3 14 Noroeste 23 Noroeste 0 -- -- 91
2019-05-28 07:00:00 2.5 10 Noroeste 22 Noroeste 0 -- -- 91
2019-05-28 06:00:00 2.8 11 Noroeste 22 Noroeste 0 -- -- 91
2019-05-28 05:00:00 3 8 Noroeste 23 Noroeste 0.1 -- -- 91
2019-05-28 04:00:00 3.2 8 Noroeste 24 Noroeste 0 -- -- 91
2019-05-28 03:00:00 3.3 13 Noroeste 26 Noroeste 0 -- -- 91
2019-05-28 02:00:00 3.4 12 Noroeste 23 Noroeste 0 -- -- 91
2019-05-28 01:00:00 3.9 14 Noroeste 23 Noroeste 0 -- -- 91
2019-05-28 00:00:00 4.2 13 Noroeste 28 Noroeste 0 -- -- 91
2019-05-27 23:00:00 4.6 13 Noroeste 26 Noroeste 0 -- -- 91
2019-05-27 22:00:00 5 13 Noroeste 30 Noroeste 0 -- -- 91
2019-05-27 21:00:00 5.6 14 Noroeste 29 Noroeste 0 -- -- 91
2019-05-27 20:00:00 6.2 12 Noroeste 32 Noroeste 0 -- -- 91
2019-05-27 19:00:00 6.6 14 Noroeste 32 Noroeste 0 -- -- 91
2019-05-27 18:00:00 7.3 13 Noroeste 25 Noroeste 0 -- -- 91
2019-05-27 17:00:00 8 11 Noroeste 30 Noroeste 0 -- -- 91
2019-05-27 16:00:00 8 13 Noroeste 31 Noroeste 0.1 -- -- 91
2019-05-27 15:00:00 7.6 13 Noroeste 31 Noroeste 0.5 -- -- 91
2019-05-27 14:00:00 8 13 Noroeste 33 Noroeste 0.3 -- -- 91
2019-05-27 13:00:00 7.8 13 Noroeste 30 Noroeste 1.2 -- -- 91
2019-05-27 12:00:00 7.8 10 Noroeste 20 Noroeste 0.4 -- -- 90
2019-05-27 11:00:00 7.3 8 Noroeste 13 Noroeste 0.4 -- -- 90
2019-05-27 10:00:00 8 6 Noroeste 12 Noroeste 0 -- -- 86
2019-05-27 09:00:00 7.4 2 Noroeste 7 Noroeste 0.1 -- -- 84
2019-05-27 08:00:00 7.8 3 Noroeste 9 Noroeste 0 -- -- 79
2019-05-27 07:00:00 7.8 4 Noroeste 12 Noroeste 0 -- -- 78
2019-05-27 06:00:00 7.9 8 Norte 22 Noroeste 0 -- -- 77
2019-05-27 05:00:00 7.6 8 Noroeste 14 Noroeste 0 -- -- 76
2019-05-27 04:00:00 7.5 7 Norte 16 Noroeste 0 -- -- 74
2019-05-27 03:00:00 7 5 Noroeste 11 Noroeste 0 -- -- 69
2019-05-27 02:00:00 7.9 2 Noroeste 13 Noroeste 0 -- -- 65
2019-05-27 01:00:00 7.9 3 Norte 8 Norte 0 -- -- 69
2019-05-27 00:00:00 7.4 0 Calma 12 Noroeste 0 -- -- 78